Strategic Alliance — 9V7193 — position and weather

sailwx.info

Track history (hours):
 
Tides and Currents Weather Stations Pressure Air Temp Water Temp Dewpoint Dewpoint Depression Visibility Wind Speed Wind Dir Waves Ship Positions

Strategic Alliance

Last reported at 2017-Nov-23 14:13 UTC. Time now 2018-Jan-21 00:47 UTC.
Position N 26°42' W 014°34'.
Warning: this ship's position is 58 days out of date.

Length 180 m; draft 10.6 m.

Type: Cargo ship. MMSI: 563642000.

Date/timePositionNaut miles runAvg speedWind from/ knotsBaromVisibWave heightAir tempDewpointWater temp
2017-Nov-23 14:13N 26°42' W 014°34'312.0
2017-Nov-23 14:00N 26°44' W 014°32'611.9
2017-Nov-23 13:30N 26°49' W 014°28'611.8
2017-Nov-23 12:59N 26°54' W 014°25'1011.7
2017-Nov-23 12:09N 27°02' W 014°19'511.2
2017-Nov-23 11:43N 27°06' W 014°16'211.4
2017-Nov-23 11:30N 27°08' W 014°14'611.8
2017-Nov-23 11:00N 27°13' W 014°10'1912.4
2017-Nov-23 09:28N 27°29' W 013°58'612.6
2017-Nov-23 09:00N 27°33' W 013°54'612.7
2017-Nov-23 08:30N 27°39' W 013°50'612.7
2017-Nov-23 08:00N 27°44' W 013°46'612.5
2017-Nov-23 07:30N 27°49' W 013°42'612.7
2017-Nov-23 07:00N 27°55' W 013°38'713.2
2017-Nov-23 06:30N 27°60' W 013°34'  
2017-Nov-19 18:37N 36°36' W 001°05'  
2017-Nov-17 06:02N 36°25' E 014°04'211.4
2017-Nov-17 05:53N 36°24' E 014°05'511.5
2017-Nov-17 05:30N 36°23' E 014°11'611.7
2017-Nov-17 05:00N 36°21' E 014°18'611.8
2017-Nov-17 04:30N 36°20' E 014°25'611.6
2017-Nov-17 04:00N 36°18' E 014°32'611.5
2017-Nov-17 03:29N 36°16' E 014°39'  
Track history (hours):
 
Tides and Currents Weather Stations Pressure Air Temp Water Temp Dewpoint Dewpoint Depression Visibility Wind Speed Wind Dir Waves Ship Positions

Strategic Alliance

Last reported at 2017-Nov-23 14:13 UTC. Time now 2018-Jan-21 00:47 UTC.
Position N 26°42' W 014°34'.
Warning: this ship's position is 58 days out of date.

Length 180 m; draft 10.6 m.

Type: Cargo ship. MMSI: 563642000.

Date/timePositionNaut miles runAvg speedWind from/ knotsBaromVisibWave heightAir tempDewpointWater temp
2017-Nov-23 14:13N 26°42' W 014°34'312.0
2017-Nov-23 14:00N 26°44' W 014°32'611.9
2017-Nov-23 13:30N 26°49' W 014°28'611.8
2017-Nov-23 12:59N 26°54' W 014°25'1011.7
2017-Nov-23 12:09N 27°02' W 014°19'511.2
2017-Nov-23 11:43N 27°06' W 014°16'211.4
2017-Nov-23 11:30N 27°08' W 014°14'611.8
2017-Nov-23 11:00N 27°13' W 014°10'1912.4
2017-Nov-23 09:28N 27°29' W 013°58'612.6
2017-Nov-23 09:00N 27°33' W 013°54'612.7
2017-Nov-23 08:30N 27°39' W 013°50'612.7
2017-Nov-23 08:00N 27°44' W 013°46'612.5
2017-Nov-23 07:30N 27°49' W 013°42'612.7
2017-Nov-23 07:00N 27°55' W 013°38'713.2
2017-Nov-23 06:30N 27°60' W 013°34'  
2017-Nov-19 18:37N 36°36' W 001°05'  
2017-Nov-17 06:02N 36°25' E 014°04'211.4
2017-Nov-17 05:53N 36°24' E 014°05'511.5
2017-Nov-17 05:30N 36°23' E 014°11'611.7
2017-Nov-17 05:00N 36°21' E 014°18'611.8
2017-Nov-17 04:30N 36°20' E 014°25'611.6
2017-Nov-17 04:00N 36°18' E 014°32'611.5
2017-Nov-17 03:29N 36°16' E 014°39'  

Dump ship's entire track history